sensor_id;sensor_type;location;lat;lon;timestamp;P1;durP1;ratioP1;P2;durP2;ratioP2
57463;SDS011;43309;44.418;26.122;2023-03-19T00:01:14;28.00;;;13.20;;
57463;SDS011;43309;44.418;26.122;2023-03-19T00:03:43;27.20;;;13.90;;
57463;SDS011;43309;44.418;26.122;2023-03-19T00:06:11;29.90;;;15.00;;
57463;SDS011;43309;44.418;26.122;2023-03-19T00:08:38;25.80;;;13.50;;
57463;SDS011;43309;44.418;26.122;2023-03-19T00:11:06;30.10;;;14.50;;
57463;SDS011;43309;44.418;26.122;2023-03-19T00:13:34;32.40;;;14.30;;
57463;SDS011;43309;44.418;26.122;2023-03-19T00:16:16;29.50;;;14.10;;
57463;SDS011;43309;44.418;26.122;2023-03-19T00:18:43;27.00;;;14.70;;
57463;SDS011;43309;44.418;26.122;2023-03-19T00:21:10;28.20;;;15.70;;
57463;SDS011;43309;44.418;26.122;2023-03-19T00:23:38;31.60;;;16.20;;
57463;SDS011;43309;44.418;26.122;2023-03-19T00:26:05;29.50;;;15.50;;
57463;SDS011;43309;44.418;26.122;2023-03-19T00:28:33;30.10;;;16.00;;
57463;SDS011;43309;44.418;26.122;2023-03-19T00:31:06;35.60;;;17.30;;
57463;SDS011;43309;44.418;26.122;2023-03-19T00:33:48;35.20;;;18.00;;
57463;SDS011;43309;44.418;26.122;2023-03-19T00:36:15;35.60;;;17.20;;
57463;SDS011;43309;44.418;26.122;2023-03-19T00:38:44;33.90;;;16.10;;
57463;SDS011;43309;44.418;26.122;2023-03-19T00:41:12;29.70;;;16.40;;
57463;SDS011;43309;44.418;26.122;2023-03-19T00:43:39;33.30;;;17.20;;
57463;SDS011;43309;44.418;26.122;2023-03-19T00:46:07;33.40;;;16.60;;
57463;SDS011;43309;44.418;26.122;2023-03-19T00:48:34;36.80;;;17.50;;
57463;SDS011;43309;44.418;26.122;2023-03-19T00:51:08;37.40;;;17.20;;
57463;SDS011;43309;44.418;26.122;2023-03-19T00:53:37;33.70;;;16.40;;
57463;SDS011;43309;44.418;26.122;2023-03-19T00:56:05;34.00;;;16.50;;
57463;SDS011;43309;44.418;26.122;2023-03-19T00:58:33;33.80;;;15.60;;
57463;SDS011;43309;44.418;26.122;2023-03-19T01:01:01;35.60;;;15.70;;
57463;SDS011;43309;44.418;26.122;2023-03-19T01:03:30;31.40;;;15.50;;
57463;SDS011;43309;44.418;26.122;2023-03-19T01:05:57;34.00;;;16.20;;
57463;SDS011;43309;44.418;26.122;2023-03-19T01:08:25;33.90;;;16.20;;
57463;SDS011;43309;44.418;26.122;2023-03-19T01:10:53;32.10;;;16.30;;
57463;SDS011;43309;44.418;26.122;2023-03-19T01:13:21;32.30;;;15.80;;
57463;SDS011;43309;44.418;26.122;2023-03-19T01:16:02;33.60;;;15.80;;
57463;SDS011;43309;44.418;26.122;2023-03-19T01:18:29;32.70;;;15.90;;
57463;SDS011;43309;44.418;26.122;2023-03-19T01:20:57;32.00;;;15.20;;
57463;SDS011;43309;44.418;26.122;2023-03-19T01:23:27;34.10;;;16.30;;
57463;SDS011;43309;44.418;26.122;2023-03-19T01:25:55;37.70;;;17.40;;
57463;SDS011;43309;44.418;26.122;2023-03-19T01:28:23;31.00;;;16.90;;
57463;SDS011;43309;44.418;26.122;2023-03-19T01:30:51;37.00;;;17.60;;
57463;SDS011;43309;44.418;26.122;2023-03-19T01:33:18;36.40;;;18.10;;
57463;SDS011;43309;44.418;26.122;2023-03-19T01:35:52;39.00;;;17.90;;
57463;SDS011;43309;44.418;26.122;2023-03-19T01:38:20;33.90;;;18.20;;
57463;SDS011;43309;44.418;26.122;2023-03-19T01:40:47;36.10;;;17.30;;
57463;SDS011;43309;44.418;26.122;2023-03-19T01:43:16;33.60;;;16.60;;
57463;SDS011;43309;44.418;26.122;2023-03-19T01:45:49;33.30;;;16.40;;
57463;SDS011;43309;44.418;26.122;2023-03-19T01:48:27;35.20;;;18.30;;
57463;SDS011;43309;44.418;26.122;2023-03-19T01:50:58;36.90;;;17.90;;
57463;SDS011;43309;44.418;26.122;2023-03-19T01:53:27;34.70;;;17.70;;
57463;SDS011;43309;44.418;26.122;2023-03-19T01:56:11;38.20;;;18.40;;
57463;SDS011;43309;44.418;26.122;2023-03-19T01:58:42;39.70;;;18.80;;
57463;SDS011;43309;44.418;26.122;2023-03-19T02:01:10;37.30;;;18.50;;
57463;SDS011;43309;44.418;26.122;2023-03-19T02:03:38;42.60;;;18.80;;
57463;SDS011;43309;44.418;26.122;2023-03-19T02:06:06;38.40;;;17.70;;
57463;SDS011;43309;44.418;26.122;2023-03-19T02:08:33;38.60;;;18.30;;
57463;SDS011;43309;44.418;26.122;2023-03-19T02:11:02;35.30;;;17.70;;
57463;SDS011;43309;44.418;26.122;2023-03-19T02:13:29;36.90;;;17.60;;
57463;SDS011;43309;44.418;26.122;2023-03-19T02:16:10;40.90;;;18.30;;
57463;SDS011;43309;44.418;26.122;2023-03-19T02:18:38;34.20;;;16.90;;
57463;SDS011;43309;44.418;26.122;2023-03-19T02:21:06;34.50;;;17.70;;
57463;SDS011;43309;44.418;26.122;2023-03-19T02:26:09;35.70;;;17.20;;
57463;SDS011;43309;44.418;26.122;2023-03-19T02:28:38;34.90;;;17.10;;
57463;SDS011;43309;44.418;26.122;2023-03-19T02:31:07;42.90;;;18.90;;
57463;SDS011;43309;44.418;26.122;2023-03-19T02:33:34;42.20;;;20.00;;
57463;SDS011;43309;44.418;26.122;2023-03-19T02:36:15;37.60;;;18.90;;
57463;SDS011;43309;44.418;26.122;2023-03-19T02:38:44;37.20;;;19.20;;
57463;SDS011;43309;44.418;26.122;2023-03-19T02:41:12;43.40;;;19.50;;
57463;SDS011;43309;44.418;26.122;2023-03-19T02:43:40;35.60;;;18.70;;
57463;SDS011;43309;44.418;26.122;2023-03-19T02:46:11;35.50;;;18.20;;
57463;SDS011;43309;44.418;26.122;2023-03-19T02:48:39;41.50;;;19.40;;
57463;SDS011;43309;44.418;26.122;2023-03-19T02:51:07;46.20;;;19.60;;
57463;SDS011;43309;44.418;26.122;2023-03-19T02:53:34;41.70;;;18.90;;
57463;SDS011;43309;44.418;26.122;2023-03-19T02:56:02;40.70;;;19.40;;
57463;SDS011;43309;44.418;26.122;2023-03-19T02:58:29;35.60;;;17.20;;
57463;SDS011;43309;44.418;26.122;2023-03-19T03:00:57;38.20;;;17.70;;
57463;SDS011;43309;44.418;26.122;2023-03-19T03:03:24;42.90;;;18.30;;
57463;SDS011;43309;44.418;26.122;2023-03-19T03:05:51;39.20;;;19.60;;
57463;SDS011;43309;44.418;26.122;2023-03-19T03:08:19;40.70;;;18.90;;
57463;SDS011;43309;44.418;26.122;2023-03-19T03:10:46;36.90;;;18.50;;
57463;SDS011;43309;44.418;26.122;2023-03-19T03:13:14;38.70;;;19.00;;
57463;SDS011;43309;44.418;26.122;2023-03-19T03:15:55;38.40;;;18.50;;
57463;SDS011;43309;44.418;26.122;2023-03-19T03:18:22;40.20;;;18.70;;
57463;SDS011;43309;44.418;26.122;2023-03-19T03:20:49;37.20;;;17.90;;
57463;SDS011;43309;44.418;26.122;2023-03-19T03:23:17;36.30;;;18.70;;
57463;SDS011;43309;44.418;26.122;2023-03-19T03:25:48;38.40;;;18.80;;
